createdAt,value
2023-05-18T00:00:00.038Z,0
2023-05-18T00:01:16.289Z,0
2023-05-18T00:02:32.531Z,0
2023-05-18T00:03:47.849Z,0
2023-05-18T00:05:04.099Z,0
2023-05-18T00:06:20.349Z,0
2023-05-18T00:07:36.598Z,0
2023-05-18T00:08:52.851Z,0
2023-05-18T00:10:09.088Z,0
2023-05-18T00:11:25.341Z,0
2023-05-18T00:12:41.591Z,0
2023-05-18T00:13:57.846Z,0
2023-05-18T00:15:14.099Z,0
2023-05-18T00:16:30.345Z,0
2023-05-18T00:17:46.592Z,0
2023-05-18T00:19:02.846Z,0
2023-05-18T00:20:18.152Z,0
2023-05-18T00:21:34.407Z,0
2023-05-18T00:22:50.650Z,0
2023-05-18T00:24:06.903Z,0
2023-05-18T00:25:23.153Z,0
2023-05-18T00:26:39.403Z,0
2023-05-18T00:27:55.657Z,0
2023-05-18T00:29:11.904Z,0
2023-05-18T00:30:28.156Z,0
2023-05-18T00:31:44.405Z,0
2023-05-18T00:33:00.657Z,0
2023-05-18T00:34:16.901Z,0
2023-05-18T00:35:33.153Z,0
2023-05-18T00:36:48.455Z,0
2023-05-18T00:38:04.708Z,0
2023-05-18T00:39:20.960Z,0
2023-05-18T00:40:37.208Z,0
2023-05-18T00:41:53.470Z,0
2023-05-18T00:43:09.719Z,0
2023-05-18T00:44:25.955Z,0
2023-05-18T00:45:42.224Z,0
2023-05-18T00:46:58.467Z,0
2023-05-18T00:48:14.714Z,0
2023-05-18T00:49:30.989Z,0
2023-05-18T00:50:47.209Z,0
2023-05-18T00:52:03.467Z,0
2023-05-18T00:53:18.773Z,0
2023-05-18T00:54:35.028Z,0
2023-05-18T00:55:51.279Z,0
2023-05-18T00:57:07.525Z,0
2023-05-18T00:58:23.776Z,0
2023-05-18T00:59:40.021Z,0
2023-05-18T01:00:56.281Z,0
2023-05-18T01:02:12.524Z,0
2023-05-18T01:03:28.777Z,0
2023-05-18T01:04:45.023Z,0
2023-05-18T01:06:01.277Z,0
2023-05-18T01:07:17.524Z,0
2023-05-18T01:08:33.777Z,0
2023-05-18T01:09:49.080Z,0
2023-05-18T01:11:05.332Z,0
2023-05-18T01:12:21.590Z,0
2023-05-18T01:13:37.838Z,0
2023-05-18T01:14:54.086Z,0
2023-05-18T01:16:10.333Z,0
2023-05-18T01:17:26.583Z,0
2023-05-18T01:18:42.836Z,0
2023-05-18T01:19:59.091Z,0
2023-05-18T01:21:10.000Z,0
2023-05-18T01:22:31.609Z,0
2023-05-18T01:23:47.846Z,0
2023-05-18T01:24:59.000Z,0
2023-05-18T01:26:19.391Z,0
2023-05-18T01:27:35.644Z,0
2023-05-18T01:28:51.904Z,0
2023-05-18T01:30:08.155Z,0
2023-05-18T01:31:24.394Z,0
2023-05-18T01:32:40.659Z,0
2023-05-18T01:33:56.902Z,0
2023-05-18T01:35:13.150Z,0
2023-05-18T01:36:29.397Z,0
2023-05-18T01:37:45.645Z,0
2023-05-18T01:39:01.899Z,0
2023-05-18T01:40:18.151Z,0
2023-05-18T01:41:34.397Z,0
2023-05-18T01:42:49.715Z,0
2023-05-18T01:44:05.959Z,0
2023-05-18T01:45:22.205Z,0
2023-05-18T01:46:38.460Z,0
2023-05-18T01:47:54.709Z,0
2023-05-18T01:49:10.965Z,0
2023-05-18T01:50:26.280Z,0
2023-05-18T01:51:42.532Z,0
2023-05-18T01:52:58.784Z,0
2023-05-18T01:54:15.027Z,0
2023-05-18T01:55:31.283Z,0
2023-05-18T01:56:47.534Z,0
2023-05-18T01:58:03.781Z,0
2023-05-18T01:59:20.035Z,0
2023-05-18T02:00:36.281Z,0
2023-05-18T02:01:52.529Z,0
2023-05-18T02:03:08.780Z,0
2023-05-18T02:04:25.029Z,0
2023-05-18T02:05:41.277Z,0
2023-05-18T02:06:56.580Z,0
2023-05-18T02:08:12.837Z,0
2023-05-18T02:09:29.085Z,0
2023-05-18T02:10:45.332Z,0
2023-05-18T02:12:01.580Z,0
2023-05-18T02:13:17.834Z,0
2023-05-18T02:14:34.079Z,0
2023-05-18T02:15:50.325Z,0
2023-05-18T02:17:06.576Z,0
2023-05-18T02:18:22.825Z,0
2023-05-18T02:19:39.073Z,0
2023-05-18T02:20:55.320Z,0
2023-05-18T02:22:11.567Z,0
2023-05-18T02:23:26.879Z,0
2023-05-18T02:24:43.129Z,0
2023-05-18T02:25:59.375Z,0
2023-05-18T02:27:15.630Z,0
2023-05-18T02:28:31.873Z,0
2023-05-18T02:29:48.126Z,0
2023-05-18T02:31:04.390Z,0
2023-05-18T02:32:20.624Z,0
2023-05-18T02:33:36.871Z,0
2023-05-18T02:34:53.126Z,0
2023-05-18T02:36:09.369Z,0
2023-05-18T02:37:25.633Z,0
2023-05-18T02:38:41.874Z,0
2023-05-18T02:39:57.174Z,0
2023-05-18T02:41:13.424Z,0
2023-05-18T02:42:29.689Z,0
2023-05-18T02:43:45.927Z,0
2023-05-18T02:45:02.168Z,0
2023-05-18T02:46:18.422Z,0
2023-05-18T02:47:34.662Z,0
2023-05-18T02:48:50.920Z,0
2023-05-18T02:50:07.174Z,0
2023-05-18T02:51:23.413Z,0
2023-05-18T02:52:39.662Z,0
2023-05-18T02:53:55.916Z,0
2023-05-18T02:55:12.164Z,0
2023-05-18T02:56:28.408Z,0
2023-05-18T02:57:44.658Z,0
2023-05-18T02:58:59.964Z,0
2023-05-18T03:00:11.000Z,0
2023-05-18T03:01:32.471Z,0
2023-05-18T03:02:48.713Z,0
2023-05-18T03:04:04.960Z,0
2023-05-18T03:05:21.209Z,0
2023-05-18T03:06:37.459Z,0
2023-05-18T03:07:53.712Z,0
2023-05-18T03:09:09.951Z,0
2023-05-18T03:10:26.209Z,0
2023-05-18T03:11:37.000Z,0
2023-05-18T03:12:58.704Z,0
2023-05-18T03:15:31.198Z,0
2023-05-18T03:16:46.495Z,0
2023-05-18T03:17:57.000Z,0
2023-05-18T03:19:19.008Z,0
2023-05-18T03:20:35.244Z,0
2023-05-18T03:21:51.497Z,5
2023-05-18T03:23:07.745Z,5
2023-05-18T03:24:23.997Z,5
2023-05-18T03:25:40.241Z,5
2023-05-18T03:26:56.491Z,5
2023-05-18T03:28:07.000Z,11
2023-05-18T03:29:24.000Z,11
2023-05-18T03:30:40.000Z,11
2023-05-18T03:32:01.492Z,16
2023-05-18T03:33:16.792Z,16
2023-05-18T03:34:33.038Z,22
2023-05-18T03:35:49.286Z,22
2023-05-18T03:37:05.539Z,28
2023-05-18T03:38:21.785Z,28
2023-05-18T03:39:38.036Z,33
2023-05-18T03:40:54.287Z,39
2023-05-18T03:42:10.537Z,39
2023-05-18T03:43:21.000Z,45
2023-05-18T03:44:43.032Z,50
2023-05-18T03:45:59.288Z,56
2023-05-18T03:47:15.530Z,61
2023-05-18T03:48:31.789Z,67
2023-05-18T03:49:48.031Z,73
2023-05-18T03:51:03.326Z,78
2023-05-18T03:52:19.581Z,90
2023-05-18T03:53:35.826Z,95
2023-05-18T03:54:52.074Z,106
2023-05-18T03:56:08.324Z,118
2023-05-18T03:57:24.576Z,135
2023-05-18T03:58:40.822Z,140
2023-05-18T03:59:57.071Z,146
2023-05-18T04:01:13.321Z,163
2023-05-18T04:02:29.569Z,174
2023-05-18T04:03:45.823Z,185
2023-05-18T04:05:02.061Z,196
2023-05-18T04:06:18.312Z,208
2023-05-18T04:07:33.620Z,225
2023-05-18T04:10:06.128Z,247
2023-05-18T04:11:22.372Z,258
2023-05-18T04:12:38.617Z,281
2023-05-18T04:13:54.870Z,292
2023-05-18T04:15:11.112Z,303
2023-05-18T04:16:27.363Z,315
2023-05-18T04:17:43.611Z,326
2023-05-18T04:18:59.867Z,343
2023-05-18T04:20:11.000Z,360
2023-05-18T04:21:32.361Z,376
2023-05-18T04:22:48.611Z,399
2023-05-18T04:24:04.855Z,416
2023-05-18T04:25:20.148Z,433
2023-05-18T04:26:36.401Z,450
2023-05-18T04:27:52.652Z,466
2023-05-18T04:29:08.900Z,483
2023-05-18T04:30:25.143Z,500
2023-05-18T04:31:41.394Z,500
2023-05-18T04:32:57.651Z,523
2023-05-18T04:34:13.887Z,551
2023-05-18T04:35:25.000Z,568
2023-05-18T04:36:46.392Z,568
2023-05-18T04:38:02.656Z,579
2023-05-18T04:39:18.890Z,658
2023-05-18T04:40:35.135Z,635
2023-05-18T04:41:50.445Z,641
2023-05-18T04:43:06.694Z,624
2023-05-18T04:44:22.939Z,658
2023-05-18T04:45:39.197Z,708
2023-05-18T04:46:55.443Z,731
2023-05-18T04:48:11.689Z,708
2023-05-18T04:49:27.944Z,759
2023-05-18T04:50:44.181Z,770
2023-05-18T04:52:00.441Z,810
2023-05-18T04:53:16.686Z,838
2023-05-18T04:54:32.934Z,838
2023-05-18T04:55:49.183Z,843
2023-05-18T04:57:05.429Z,877
2023-05-18T04:58:20.732Z,905
2023-05-18T04:59:36.984Z,911
2023-05-18T05:00:53.228Z,928
2023-05-18T05:02:09.477Z,961
2023-05-18T05:03:25.731Z,973
2023-05-18T05:04:41.981Z,995
2023-05-18T05:05:58.231Z,1023
2023-05-18T05:07:09.000Z,1023
2023-05-18T05:08:30.722Z,1035
2023-05-18T05:09:46.971Z,1068
2023-05-18T05:11:03.221Z,1074
2023-05-18T05:12:19.473Z,1068
2023-05-18T05:13:35.722Z,1108
2023-05-18T05:14:51.026Z,1130
2023-05-18T05:16:07.280Z,1170
2023-05-18T05:17:23.519Z,1209
2023-05-18T05:18:39.769Z,1181
2023-05-18T05:19:56.023Z,1226
2023-05-18T05:21:12.267Z,1282
2023-05-18T05:22:28.519Z,1293
2023-05-18T05:23:44.764Z,1276
2023-05-18T05:25:01.016Z,1299
2023-05-18T05:26:17.264Z,1310
2023-05-18T05:27:33.515Z,1355
2023-05-18T05:28:49.766Z,1383
2023-05-18T05:30:06.007Z,1456
2023-05-18T05:31:22.262Z,1383
2023-05-18T05:32:37.559Z,1456
2023-05-18T05:33:53.810Z,1513
2023-05-18T05:35:05.000Z,1501
2023-05-18T05:36:26.312Z,1552
2023-05-18T05:37:42.551Z,1591
2023-05-18T05:38:58.805Z,1524
2023-05-18T05:40:15.059Z,1569
2023-05-18T05:41:31.301Z,1591
2023-05-18T05:42:47.556Z,1620
2023-05-18T05:44:03.804Z,1569
2023-05-18T05:45:20.054Z,1620
2023-05-18T05:46:36.295Z,1670
2023-05-18T05:47:52.554Z,1732
2023-05-18T05:49:07.852Z,1783
2023-05-18T05:50:24.103Z,1788
2023-05-18T05:52:56.625Z,1800
2023-05-18T05:54:12.872Z,1873
2023-05-18T05:55:29.124Z,1850
2023-05-18T05:56:45.378Z,1873
2023-05-18T05:58:01.624Z,1884
2023-05-18T05:59:17.872Z,1878
2023-05-18T06:00:34.116Z,1906
2023-05-18T06:01:50.363Z,1957
2023-05-18T06:03:06.614Z,1946
2023-05-18T06:04:22.860Z,1991
2023-05-18T06:05:33.000Z,2103
2023-05-18T06:06:54.431Z,2030
2023-05-18T06:08:10.683Z,2008
2023-05-18T06:09:26.930Z,2002
2023-05-18T06:10:38.000Z,2019
2023-05-18T06:11:59.425Z,2013
2023-05-18T06:13:15.671Z,2176
2023-05-18T06:14:31.927Z,1991
2023-05-18T06:15:48.167Z,2058
2023-05-18T06:17:04.426Z,2227
2023-05-18T06:18:20.672Z,2165
2023-05-18T06:19:36.916Z,2025
2023-05-18T06:20:53.178Z,2092
2023-05-18T06:22:09.426Z,1923
2023-05-18T06:23:25.664Z,1659
2023-05-18T06:25:57.211Z,1929
2023-05-18T06:27:13.460Z,2244
2023-05-18T06:28:29.707Z,2238
2023-05-18T06:29:45.961Z,2311
2023-05-18T06:31:02.201Z,2626
2023-05-18T06:32:18.452Z,2390
2023-05-18T06:33:34.704Z,2317
2023-05-18T06:34:50.951Z,2210
2023-05-18T06:36:07.203Z,2261
2023-05-18T06:37:23.455Z,2446
2023-05-18T06:38:39.695Z,2272
2023-05-18T06:39:55.950Z,2289
2023-05-18T06:41:11.245Z,2722
2023-05-18T06:42:27.487Z,2812
2023-05-18T06:43:43.745Z,2705
2023-05-18T06:44:55.000Z,2671
2023-05-18T06:46:16.241Z,2756
2023-05-18T06:47:32.501Z,2745
2023-05-18T06:48:48.741Z,2998
2023-05-18T06:50:04.984Z,2863
2023-05-18T06:51:21.236Z,3093
2023-05-18T06:52:37.479Z,3105
2023-05-18T06:53:53.729Z,2913
2023-05-18T06:55:09.979Z,2891
2023-05-18T06:56:26.227Z,3116
2023-05-18T06:57:41.528Z,3127
2023-05-18T06:58:57.769Z,3594
2023-05-18T07:00:14.019Z,3150
2023-05-18T07:01:30.269Z,3217
2023-05-18T07:02:46.527Z,3127
2023-05-18T07:04:02.762Z,3211
2023-05-18T07:05:19.021Z,3178
2023-05-18T07:07:51.522Z,3082
2023-05-18T07:09:07.769Z,3656
2023-05-18T07:10:24.011Z,3279
2023-05-18T07:11:40.264Z,3481
2023-05-18T07:12:56.508Z,3380
2023-05-18T07:14:12.755Z,3470
2023-05-18T07:15:28.067Z,3583
2023-05-18T07:16:44.315Z,3403
2023-05-18T07:18:00.559Z,3605
2023-05-18T07:19:16.806Z,3493
2023-05-18T07:20:33.080Z,3836
2023-05-18T07:21:49.308Z,3150
2023-05-18T07:23:05.553Z,3442
2023-05-18T07:24:21.806Z,3003
2023-05-18T07:25:38.059Z,3155
2023-05-18T07:26:54.305Z,3082
2023-05-18T07:28:10.553Z,2823
2023-05-18T07:29:26.805Z,2925
2023-05-18T07:30:43.057Z,2880
2023-05-18T07:31:59.300Z,3380
2023-05-18T07:33:15.545Z,2970
2023-05-18T07:34:30.852Z,2953
2023-05-18T07:35:47.108Z,3324
2023-05-18T07:37:03.358Z,3296
2023-05-18T07:38:19.608Z,3150
2023-05-18T07:39:35.847Z,3031
2023-05-18T07:40:52.098Z,3150
2023-05-18T07:42:08.345Z,3318
2023-05-18T07:44:40.849Z,3751
2023-05-18T07:45:57.092Z,3172
2023-05-18T07:47:13.337Z,3616
2023-05-18T07:48:29.591Z,3633
2023-05-18T07:49:45.839Z,3386
2023-05-18T07:51:01.152Z,3510
2023-05-18T07:52:17.388Z,3521
2023-05-18T07:53:33.644Z,3886
2023-05-18T07:54:49.893Z,3718
2023-05-18T07:56:06.144Z,3920
2023-05-18T07:57:17.000Z,3577
2023-05-18T07:58:38.637Z,3864
2023-05-18T07:59:54.886Z,3403
2023-05-18T08:01:11.126Z,3898
2023-05-18T08:02:27.378Z,3487
2023-05-18T08:03:43.636Z,3971
2023-05-18T08:04:59.881Z,4066
2023-05-18T08:06:16.132Z,3768
2023-05-18T08:07:31.428Z,3425
2023-05-18T08:08:47.684Z,3324
2023-05-18T08:10:03.928Z,3858
2023-05-18T08:11:20.173Z,3813
2023-05-18T08:12:36.428Z,4308
2023-05-18T08:13:52.671Z,4342
2023-05-18T08:15:08.923Z,3875
2023-05-18T08:16:25.173Z,3746
2023-05-18T08:17:41.432Z,3785
2023-05-18T08:18:57.667Z,4055
2023-05-18T08:20:13.912Z,3881
2023-05-18T08:21:30.172Z,3870
2023-05-18T08:22:46.408Z,3982
2023-05-18T08:24:01.724Z,3684
2023-05-18T08:25:17.977Z,3971
2023-05-18T08:26:34.224Z,3971
2023-05-18T08:27:50.473Z,3943
2023-05-18T08:29:06.715Z,3948
2023-05-18T08:30:22.975Z,3881
2023-05-18T08:31:39.220Z,3926
2023-05-18T08:32:55.466Z,4005
2023-05-18T08:34:11.711Z,4038
2023-05-18T08:35:27.965Z,4055
2023-05-18T08:36:44.213Z,3971
2023-05-18T08:38:00.462Z,3937
2023-05-18T08:39:16.707Z,3892
2023-05-18T08:40:32.013Z,3718
2023-05-18T08:41:48.261Z,3948
2023-05-18T08:43:04.513Z,3993
2023-05-18T08:44:20.756Z,4803
2023-05-18T08:45:37.000Z,4972
2023-05-18T08:46:53.253Z,4455
2023-05-18T08:48:09.501Z,4455
2023-05-18T08:49:25.750Z,4438
2023-05-18T08:50:42.008Z,4426
2023-05-18T08:51:58.245Z,4387
2023-05-18T08:53:14.504Z,4443
2023-05-18T08:54:30.738Z,4438
2023-05-18T08:55:46.993Z,4151
2023-05-18T08:57:02.295Z,4185
2023-05-18T08:58:18.546Z,4393
2023-05-18T08:59:34.801Z,4426
2023-05-18T09:00:51.052Z,4522
2023-05-18T09:02:07.298Z,4561
2023-05-18T09:03:23.541Z,4556
2023-05-18T09:04:39.789Z,4477
2023-05-18T09:05:56.043Z,4635
2023-05-18T09:07:12.284Z,4680
2023-05-18T09:09:44.792Z,4978
2023-05-18T09:11:01.031Z,4826
2023-05-18T09:12:17.277Z,4685
2023-05-18T09:13:33.533Z,4775
2023-05-18T09:14:48.837Z,4944
2023-05-18T09:16:05.086Z,5186
2023-05-18T09:17:21.336Z,5265
2023-05-18T09:18:37.588Z,5090
2023-05-18T09:19:53.828Z,4978
2023-05-18T09:21:10.090Z,5281
2023-05-18T09:22:26.334Z,5439
2023-05-18T09:23:37.000Z,5461
2023-05-18T09:24:58.829Z,5585
2023-05-18T09:26:15.076Z,5580
2023-05-18T09:27:31.325Z,1867
2023-05-18T09:28:47.574Z,1816
2023-05-18T09:30:03.813Z,2908
2023-05-18T09:31:19.118Z,5788
2023-05-18T09:32:30.000Z,5799
2023-05-18T09:33:51.616Z,2238
2023-05-18T09:35:07.875Z,2013
2023-05-18T09:36:24.116Z,5484
2023-05-18T09:37:40.362Z,5613
2023-05-18T09:38:56.613Z,5641
2023-05-18T09:40:12.864Z,2396
2023-05-18T09:41:29.115Z,2081
2023-05-18T09:42:45.361Z,3718
2023-05-18T09:44:01.611Z,5709
2023-05-18T09:45:17.857Z,2047
2023-05-18T09:46:34.102Z,2058
2023-05-18T09:47:49.410Z,2238
2023-05-18T09:49:05.664Z,5220
2023-05-18T09:50:21.905Z,2660
2023-05-18T09:51:38.157Z,2463
2023-05-18T09:52:54.403Z,2643
2023-05-18T09:54:10.660Z,2745
2023-05-18T09:55:26.902Z,2334
2023-05-18T09:56:43.152Z,2137
2023-05-18T09:57:59.398Z,2086
2023-05-18T09:59:15.649Z,2081
2023-05-18T10:00:31.905Z,6193
2023-05-18T10:01:48.151Z,5855
2023-05-18T10:03:04.404Z,6108
2023-05-18T10:04:19.702Z,6204
2023-05-18T10:05:35.950Z,6581
2023-05-18T10:06:52.207Z,7301
2023-05-18T10:08:03.000Z,7211
2023-05-18T10:09:24.699Z,7458
2023-05-18T10:10:40.952Z,7897
2023-05-18T10:11:57.192Z,7470
2023-05-18T10:13:13.448Z,6671
2023-05-18T10:14:29.695Z,6474
2023-05-18T10:15:45.938Z,6103
2023-05-18T10:18:18.434Z,6367
2023-05-18T10:19:34.689Z,6530
2023-05-18T10:20:50.003Z,6260
2023-05-18T10:22:06.259Z,6035
2023-05-18T10:23:22.511Z,6013
2023-05-18T10:24:38.748Z,6277
2023-05-18T10:25:54.999Z,6581
2023-05-18T10:27:11.244Z,6120
2023-05-18T10:28:27.499Z,5709
2023-05-18T10:29:43.749Z,6035
2023-05-18T10:31:00.003Z,5703
2023-05-18T10:32:16.242Z,6136
2023-05-18T10:33:32.495Z,6136
2023-05-18T10:34:48.739Z,5821
2023-05-18T10:36:04.988Z,7385
2023-05-18T10:37:20.297Z,6997
2023-05-18T10:38:36.548Z,6508
2023-05-18T10:39:52.793Z,6873
2023-05-18T10:41:09.051Z,6631
2023-05-18T10:42:25.293Z,5872
2023-05-18T10:43:41.539Z,5748
2023-05-18T10:44:57.787Z,3285
2023-05-18T10:46:14.037Z,2801
2023-05-18T10:47:30.284Z,3892
2023-05-18T10:48:46.532Z,2441
2023-05-18T10:50:02.782Z,4736
2023-05-18T10:51:19.031Z,5636
2023-05-18T10:52:35.283Z,6406
2023-05-18T10:53:50.588Z,6277
2023-05-18T10:55:06.846Z,5698
2023-05-18T10:56:23.085Z,2778
2023-05-18T10:57:39.342Z,2233
2023-05-18T10:58:55.588Z,5236
2023-05-18T11:00:11.835Z,5951
2023-05-18T11:01:28.086Z,5591
2023-05-18T11:02:44.330Z,5394
2023-05-18T11:04:00.586Z,3178
2023-05-18T11:05:16.833Z,5771
2023-05-18T11:06:33.076Z,5242
2023-05-18T11:07:49.339Z,3549
2023-05-18T11:09:05.572Z,4410
2023-05-18T11:10:20.879Z,1974
2023-05-18T11:11:37.136Z,3189
2023-05-18T11:12:53.384Z,5118
2023-05-18T11:14:04.000Z,5681
2023-05-18T11:15:20.000Z,4173
2023-05-18T11:16:42.131Z,3723
2023-05-18T11:17:58.375Z,6103
2023-05-18T11:19:14.624Z,6586
2023-05-18T11:20:30.881Z,6986
2023-05-18T11:21:47.122Z,6480
2023-05-18T11:23:03.380Z,6108
2023-05-18T11:24:19.620Z,5158
2023-05-18T11:25:35.870Z,6924
2023-05-18T11:26:51.178Z,2221
2023-05-18T11:28:07.427Z,3774
2023-05-18T11:29:23.679Z,7396
2023-05-18T11:30:39.927Z,4516
2023-05-18T11:33:12.425Z,5805
2023-05-18T11:35:44.934Z,6221
2023-05-18T11:37:01.176Z,5990
2023-05-18T11:38:17.432Z,5816
2023-05-18T11:39:33.699Z,5546
2023-05-18T11:40:49.927Z,5737
2023-05-18T11:42:06.185Z,5911
2023-05-18T11:43:22.432Z,5906
2023-05-18T11:44:37.738Z,5776
2023-05-18T11:45:54.000Z,5630
2023-05-18T11:47:10.234Z,5371
2023-05-18T11:48:26.490Z,5518
2023-05-18T11:49:42.743Z,5793
2023-05-18T11:52:15.244Z,5276
2023-05-18T11:53:30.572Z,5388
2023-05-18T11:54:40.000Z,5580
2023-05-18T11:56:02.124Z,5371
2023-05-18T11:57:18.375Z,5523
2023-05-18T11:58:34.628Z,5670
2023-05-18T11:59:50.881Z,5490
2023-05-18T12:01:07.138Z,5838
2023-05-18T12:02:23.381Z,5715
2023-05-18T12:03:39.625Z,5641
2023-05-18T12:04:55.880Z,5130
2023-05-18T12:06:12.131Z,5101
2023-05-18T12:07:27.467Z,5214
2023-05-18T12:08:42.770Z,5152
2023-05-18T12:09:59.021Z,5124
2023-05-18T12:12:31.524Z,4927
2023-05-18T12:13:47.768Z,5647
2023-05-18T12:14:58.000Z,5445
2023-05-18T12:16:20.273Z,5889
2023-05-18T12:17:36.517Z,6451
2023-05-18T12:18:52.766Z,5478
2023-05-18T12:20:09.023Z,5512
2023-05-18T12:21:25.283Z,5889
2023-05-18T12:22:41.522Z,7481
2023-05-18T12:23:57.769Z,8251
2023-05-18T12:25:13.067Z,7312
2023-05-18T12:26:29.314Z,6525
2023-05-18T12:27:45.566Z,6120
2023-05-18T12:28:56.000Z,5433
2023-05-18T12:30:18.074Z,5349
2023-05-18T12:31:34.321Z,5242
2023-05-18T12:32:50.566Z,5253
2023-05-18T12:34:06.822Z,5523
2023-05-18T12:35:23.072Z,5692
2023-05-18T12:36:39.337Z,5506
2023-05-18T12:37:55.572Z,4916
2023-05-18T12:39:11.824Z,4488
2023-05-18T12:40:28.079Z,4455
2023-05-18T12:41:38.000Z,4500
2023-05-18T12:42:59.623Z,4595
2023-05-18T12:44:15.876Z,4640
2023-05-18T12:45:27.000Z,4820
2023-05-18T12:46:48.378Z,5090
2023-05-18T12:47:59.000Z,4955
2023-05-18T12:49:20.880Z,4781
2023-05-18T12:50:37.125Z,4972
2023-05-18T12:51:53.379Z,5175
2023-05-18T12:53:09.622Z,5580
2023-05-18T12:54:25.876Z,4905
2023-05-18T12:55:42.122Z,4876
2023-05-18T12:56:58.370Z,4938
2023-05-18T12:58:13.686Z,4921
2023-05-18T12:59:29.935Z,4938
2023-05-18T13:00:46.182Z,4916
2023-05-18T13:02:02.434Z,5073
2023-05-18T13:03:18.678Z,4972
2023-05-18T13:04:34.937Z,5191
2023-05-18T13:05:51.186Z,5478
2023-05-18T13:07:07.430Z,5748
2023-05-18T13:08:23.681Z,6187
2023-05-18T13:09:39.932Z,6322
2023-05-18T13:10:56.178Z,6193
2023-05-18T13:12:12.429Z,5754
2023-05-18T13:13:28.683Z,5360
2023-05-18T13:14:43.983Z,5203
2023-05-18T13:16:00.235Z,5068
2023-05-18T13:17:16.490Z,4753
2023-05-18T13:18:32.738Z,4792
2023-05-18T13:19:48.985Z,4865
2023-05-18T13:21:05.234Z,4995
2023-05-18T13:22:21.488Z,5101
2023-05-18T13:23:37.745Z,4831
2023-05-18T13:24:53.980Z,4871
2023-05-18T13:26:05.000Z,5006
2023-05-18T13:27:26.486Z,4584
2023-05-18T13:28:42.735Z,4415
2023-05-18T13:29:58.986Z,4505
2023-05-18T13:31:14.297Z,4365
2023-05-18T13:32:30.550Z,4404
2023-05-18T13:33:46.795Z,4674
2023-05-18T13:35:03.045Z,4691
2023-05-18T13:36:19.296Z,4691
2023-05-18T13:37:35.540Z,4702
2023-05-18T13:38:51.789Z,4730
2023-05-18T13:40:08.049Z,4786
2023-05-18T13:41:24.286Z,4933
2023-05-18T13:42:35.000Z,4888
2023-05-18T13:43:56.792Z,4848
2023-05-18T13:46:29.295Z,4888
2023-05-18T13:47:44.595Z,4860
2023-05-18T13:49:00.855Z,4764
2023-05-18T13:50:11.000Z,4826
2023-05-18T13:51:33.346Z,4820
2023-05-18T13:52:49.596Z,4966
2023-05-18T13:54:05.852Z,4933
2023-05-18T13:55:22.100Z,4640
2023-05-18T13:56:38.349Z,4713
2023-05-18T13:57:54.594Z,5152
2023-05-18T13:59:10.847Z,4905
2023-05-18T14:00:27.095Z,4933
2023-05-18T14:01:43.343Z,4921
2023-05-18T14:02:59.590Z,4567
2023-05-18T14:04:09.000Z,4483
2023-05-18T14:05:31.157Z,4618
2023-05-18T14:06:47.398Z,4848
2023-05-18T14:08:03.650Z,4691
2023-05-18T14:09:19.902Z,4623
2023-05-18T14:10:36.148Z,4882
2023-05-18T14:11:52.405Z,5107
2023-05-18T14:13:08.654Z,5079
2023-05-18T14:14:24.910Z,4696
2023-05-18T14:15:41.143Z,4916
2023-05-18T14:16:57.400Z,5293
2023-05-18T14:18:13.645Z,4950
2023-05-18T14:19:29.903Z,4899
2023-05-18T14:20:45.203Z,4905
2023-05-18T14:22:01.451Z,4995
2023-05-18T14:23:12.000Z,5062
2023-05-18T14:24:33.951Z,5326
2023-05-18T14:25:50.201Z,5017
2023-05-18T14:27:06.448Z,4635
2023-05-18T14:28:22.708Z,4781
2023-05-18T14:29:38.952Z,5214
2023-05-18T14:30:55.194Z,4927
2023-05-18T14:32:11.451Z,4516
2023-05-18T14:33:27.697Z,4134
2023-05-18T14:34:43.953Z,4455
2023-05-18T14:35:59.265Z,4511
2023-05-18T14:37:15.519Z,4050
2023-05-18T14:38:31.758Z,3864
2023-05-18T14:39:48.019Z,4106
2023-05-18T14:41:04.261Z,3988
2023-05-18T14:42:15.000Z,3268
2023-05-18T14:43:36.761Z,3105
2023-05-18T14:44:53.013Z,3273
2023-05-18T14:46:09.261Z,3982
2023-05-18T14:47:25.517Z,3892
2023-05-18T14:48:41.762Z,3273
2023-05-18T14:49:58.010Z,3015
2023-05-18T14:51:14.259Z,2953
2023-05-18T14:52:30.518Z,3211
2023-05-18T14:53:46.763Z,3431
2023-05-18T14:55:02.059Z,3549
2023-05-18T14:56:18.309Z,3363
2023-05-18T14:57:34.570Z,3414
2023-05-18T14:58:50.814Z,3493
2023-05-18T15:00:07.069Z,3335
2023-05-18T15:02:39.563Z,3020
2023-05-18T15:03:55.816Z,2660
2023-05-18T15:05:12.052Z,2587
2023-05-18T15:06:28.311Z,2559
2023-05-18T15:07:44.558Z,2536
2023-05-18T15:09:00.811Z,2621
2023-05-18T15:10:17.060Z,2896
2023-05-18T15:11:32.363Z,3048
2023-05-18T15:12:48.614Z,2660
2023-05-18T15:14:04.863Z,2508
2023-05-18T15:15:21.118Z,2469
2023-05-18T15:16:37.357Z,2565
2023-05-18T15:17:53.603Z,3093
2023-05-18T15:19:04.000Z,3121
2023-05-18T15:20:20.000Z,2891
2023-05-18T15:21:42.361Z,2964
2023-05-18T15:22:58.609Z,2773
2023-05-18T15:24:14.857Z,3076
2023-05-18T15:25:31.113Z,3043
2023-05-18T15:26:47.348Z,2671
2023-05-18T15:28:02.668Z,2480
2023-05-18T15:29:18.908Z,2497
2023-05-18T15:30:35.163Z,2536
2023-05-18T15:31:51.410Z,2683
2023-05-18T15:33:07.659Z,2806
2023-05-18T15:34:23.904Z,2643
2023-05-18T15:35:40.151Z,2666
2023-05-18T15:36:56.405Z,2739
2023-05-18T15:38:12.658Z,1974
2023-05-18T15:39:23.000Z,2306
2023-05-18T15:40:45.153Z,1102
2023-05-18T15:42:01.406Z,1451
2023-05-18T15:43:17.653Z,2610
2023-05-18T15:44:32.955Z,2233
2023-05-18T15:45:49.203Z,2160
2023-05-18T15:47:05.455Z,2092
2023-05-18T15:48:21.705Z,2081
2023-05-18T15:49:37.949Z,2092
2023-05-18T15:50:54.209Z,2075
2023-05-18T15:52:10.458Z,2086
2023-05-18T15:53:26.705Z,2205
2023-05-18T15:54:42.950Z,2379
2023-05-18T15:55:59.205Z,2272
2023-05-18T15:57:15.454Z,2379
2023-05-18T15:58:31.694Z,2458
2023-05-18T15:59:42.000Z,2205
2023-05-18T16:01:03.257Z,2216
2023-05-18T16:02:19.523Z,2244
2023-05-18T16:03:35.750Z,2446
2023-05-18T16:04:52.009Z,2469
2023-05-18T16:06:08.256Z,1040
2023-05-18T16:07:24.504Z,1822
2023-05-18T16:08:40.754Z,1299
2023-05-18T16:09:57.001Z,1991
2023-05-18T16:11:13.248Z,1951
2023-05-18T16:12:29.506Z,2092
2023-05-18T16:13:45.750Z,2233
2023-05-18T16:15:02.006Z,2008
2023-05-18T16:16:18.254Z,2041
2023-05-18T16:17:28.000Z,2137
2023-05-18T16:18:49.804Z,2553
2023-05-18T16:20:06.062Z,2761
2023-05-18T16:21:22.310Z,2829
2023-05-18T16:22:38.568Z,2784
2023-05-18T16:23:54.809Z,2756
2023-05-18T16:25:11.048Z,2790
2023-05-18T16:26:27.308Z,1271
2023-05-18T16:27:43.552Z,1434
2023-05-18T16:28:59.807Z,2936
2023-05-18T16:30:16.059Z,3076
2023-05-18T16:31:32.304Z,2998
2023-05-18T16:32:48.559Z,1890
2023-05-18T16:34:03.875Z,2103
2023-05-18T16:35:20.119Z,1091
2023-05-18T16:36:31.000Z,945
2023-05-18T16:37:52.612Z,2008
2023-05-18T16:39:08.856Z,1288
2023-05-18T16:40:25.104Z,928
2023-05-18T16:41:41.369Z,894
2023-05-18T16:42:57.607Z,2401
2023-05-18T16:44:13.850Z,2283
2023-05-18T16:45:30.116Z,2182
2023-05-18T16:46:46.363Z,2171
2023-05-18T16:48:02.604Z,2210
2023-05-18T16:49:18.854Z,2216
2023-05-18T16:50:34.167Z,2238
2023-05-18T16:51:50.409Z,2244
2023-05-18T16:53:06.662Z,2221
2023-05-18T16:54:22.913Z,2092
2023-05-18T16:55:33.000Z,2030
2023-05-18T16:56:55.413Z,2013
2023-05-18T16:58:11.662Z,1980
2023-05-18T16:59:27.908Z,2030
2023-05-18T17:00:44.162Z,1980
2023-05-18T17:02:00.413Z,1974
2023-05-18T17:03:16.668Z,1940
2023-05-18T17:04:32.910Z,1968
2023-05-18T17:05:49.165Z,1901
2023-05-18T17:07:04.464Z,1890
2023-05-18T17:08:20.720Z,1861
2023-05-18T17:09:36.965Z,1788
2023-05-18T17:10:53.223Z,1783
2023-05-18T17:12:09.462Z,1766
2023-05-18T17:13:25.720Z,1760
2023-05-18T17:14:41.962Z,1704
2023-05-18T17:15:58.217Z,1681
2023-05-18T17:17:14.468Z,1704
2023-05-18T17:18:30.713Z,1653
2023-05-18T17:19:46.964Z,1563
2023-05-18T17:21:03.218Z,1591
2023-05-18T17:22:19.465Z,1580
2023-05-18T17:23:34.777Z,1586
2023-05-18T17:24:51.025Z,1552
2023-05-18T17:26:07.280Z,1530
2023-05-18T17:27:23.517Z,1535
2023-05-18T17:28:39.765Z,1333
2023-05-18T17:29:56.021Z,1417
2023-05-18T17:31:12.267Z,1423
2023-05-18T17:32:28.514Z,1355
2023-05-18T17:33:39.000Z,1417
2023-05-18T17:35:01.027Z,1372
2023-05-18T17:36:17.265Z,1265